createdAt,value
2023-09-26T00:00:20.628Z,3.80
2023-09-26T00:02:48.773Z,4.03
2023-09-26T00:05:15.622Z,4.43
2023-09-26T00:07:42.437Z,4.03
2023-09-26T00:10:12.569Z,4.25
2023-09-26T00:12:40.049Z,3.95
2023-09-26T00:15:08.422Z,4.45
2023-09-26T00:17:38.746Z,4.22
2023-09-26T00:20:39.391Z,4.20
2023-09-26T00:23:08.067Z,4.20
2023-09-26T00:25:35.284Z,4.43
2023-09-26T00:28:02.001Z,4.15
2023-09-26T00:30:28.694Z,4.22
2023-09-26T00:32:55.463Z,4.43
2023-09-26T00:35:22.892Z,4.38
2023-09-26T00:37:52.137Z,4.40
2023-09-26T00:40:23.814Z,4.18
2023-09-26T00:42:51.454Z,3.75
2023-09-26T00:45:19.457Z,4.25
2023-09-26T00:47:46.705Z,4.32
2023-09-26T00:50:14.422Z,4.28
2023-09-26T00:52:46.987Z,4.07
2023-09-26T00:55:17.875Z,3.90
2023-09-26T00:57:46.715Z,4.40
2023-09-26T01:00:16.963Z,3.65
2023-09-26T01:02:44.475Z,3.75
2023-09-26T01:05:11.715Z,4.30
2023-09-26T01:07:40.062Z,4.13
2023-09-26T01:10:11.624Z,4.05
2023-09-26T01:12:40.153Z,4.25
2023-09-26T01:15:09.360Z,4.03
2023-09-26T01:17:36.177Z,4.10
2023-09-26T01:20:04.339Z,3.97
2023-09-26T01:22:33.242Z,3.92
2023-09-26T01:25:00.886Z,4.32
2023-09-26T01:27:27.667Z,3.85
2023-09-26T01:29:56.110Z,3.80
2023-09-26T01:32:24.253Z,3.90
2023-09-26T01:34:51.058Z,4.00
2023-09-26T01:37:17.744Z,3.90
2023-09-26T01:39:44.565Z,3.75
2023-09-26T01:42:11.307Z,3.85
2023-09-26T01:44:38.004Z,3.65
2023-09-26T01:47:05.349Z,3.72
2023-09-26T01:49:32.646Z,3.65
2023-09-26T01:51:59.381Z,4.03
2023-09-26T01:54:26.157Z,3.63
2023-09-26T01:56:52.760Z,3.80
2023-09-26T01:59:19.943Z,3.40
2023-09-26T02:01:47.118Z,3.40
2023-09-26T02:04:13.921Z,3.67
2023-09-26T02:06:40.578Z,3.75
2023-09-26T02:09:10.062Z,3.40
2023-09-26T02:11:36.663Z,3.65
2023-09-26T02:14:03.780Z,4.13
2023-09-26T02:16:31.055Z,3.63
2023-09-26T02:18:58.435Z,3.10
2023-09-26T02:21:25.156Z,3.60
2023-09-26T02:23:52.673Z,3.60
2023-09-26T02:26:20.047Z,3.75
2023-09-26T02:28:46.677Z,4.00
2023-09-26T02:31:17.083Z,3.65
2023-09-26T02:33:44.778Z,3.80
2023-09-26T02:36:11.391Z,3.70
2023-09-26T02:38:38.144Z,3.13
2023-09-26T02:41:04.917Z,3.60
2023-09-26T02:43:31.610Z,3.30
2023-09-26T02:45:58.444Z,3.20
2023-09-26T02:48:25.169Z,3.22
2023-09-26T02:50:51.764Z,3.13
2023-09-26T02:53:19.082Z,3.78
2023-09-26T02:55:45.710Z,3.45
2023-09-26T02:58:12.363Z,3.50
2023-09-26T03:00:42.422Z,3.22
2023-09-26T03:03:09.104Z,3.67
2023-09-26T03:05:36.760Z,3.08
2023-09-26T03:08:03.712Z,3.40
2023-09-26T03:10:30.833Z,3.28
2023-09-26T03:12:57.839Z,3.53
2023-09-26T03:15:24.490Z,3.70
2023-09-26T03:17:51.088Z,3.70
2023-09-26T03:20:18.286Z,3.72
2023-09-26T03:22:45.234Z,3.63
2023-09-26T03:25:12.456Z,3.60
2023-09-26T03:27:39.100Z,3.83
2023-09-26T03:30:06.432Z,3.80
2023-09-26T03:32:33.054Z,3.80
2023-09-26T03:34:59.715Z,3.80
2023-09-26T03:37:26.356Z,3.80
2023-09-26T03:39:53.073Z,3.72
2023-09-26T03:42:20.281Z,3.38
2023-09-26T03:44:47.732Z,3.60
2023-09-26T03:47:15.065Z,4.28
2023-09-26T03:49:41.711Z,3.25
2023-09-26T03:52:08.368Z,3.15
2023-09-26T03:54:35.863Z,3.35
2023-09-26T03:57:05.556Z,3.67
2023-09-26T03:59:32.237Z,3.83
2023-09-26T04:01:58.918Z,3.40
2023-09-26T04:04:26.410Z,3.90
2023-09-26T04:06:53.083Z,3.40
2023-09-26T04:09:20.171Z,3.40
2023-09-26T04:11:49.574Z,3.65
2023-09-26T04:14:16.499Z,3.22
2023-09-26T04:16:43.129Z,3.80
2023-09-26T04:19:10.294Z,3.38
2023-09-26T04:21:37.134Z,3.83
2023-09-26T04:24:07.376Z,3.78
2023-09-26T04:26:34.370Z,3.88
2023-09-26T04:29:00.995Z,3.38
2023-09-26T04:33:54.580Z,3.47
2023-09-26T04:36:21.742Z,3.58
2023-09-26T04:38:49.140Z,3.63
2023-09-26T04:41:15.857Z,3.70
2023-09-26T04:43:43.056Z,3.50
2023-09-26T04:46:13.847Z,3.45
2023-09-26T04:48:41.386Z,3.42
2023-09-26T04:51:13.513Z,3.10
2023-09-26T04:53:40.564Z,3.50
2023-09-26T04:56:10.549Z,3.40
2023-09-26T04:58:37.492Z,3.38
2023-09-26T05:01:15.213Z,3.17
2023-09-26T05:03:43.473Z,3.50
2023-09-26T05:06:10.634Z,3.55
2023-09-26T05:08:38.077Z,2.80
2023-09-26T05:11:06.312Z,3.55
2023-09-26T05:13:35.792Z,3.20
2023-09-26T05:16:02.394Z,2.72
2023-09-26T05:18:29.055Z,3.10
2023-09-26T05:20:56.586Z,3.50
2023-09-26T05:23:23.655Z,3.35
2023-09-26T05:25:52.380Z,3.40
2023-09-26T05:28:19.083Z,3.20
2023-09-26T05:30:46.978Z,2.85
2023-09-26T05:33:13.616Z,3.03
2023-09-26T05:35:40.413Z,3.15
2023-09-26T05:38:07.399Z,3.15
2023-09-26T05:40:34.487Z,3.55
2023-09-26T05:43:01.273Z,3.22
2023-09-26T05:45:27.963Z,3.42
2023-09-26T05:47:54.546Z,3.30
2023-09-26T05:50:21.632Z,3.35
2023-09-26T05:52:48.566Z,3.42
2023-09-26T05:55:15.397Z,3.53
2023-09-26T05:57:41.984Z,3.58
2023-09-26T06:00:14.554Z,3.40
2023-09-26T06:02:41.759Z,3.03
2023-09-26T06:05:08.827Z,3.45
2023-09-26T06:07:35.628Z,3.50
2023-09-26T06:10:09.318Z,3.40
2023-09-26T06:12:36.944Z,4.00
2023-09-26T06:15:07.714Z,3.75
2023-09-26T06:17:35.072Z,4.18
2023-09-26T06:20:02.361Z,3.85
2023-09-26T06:22:29.505Z,3.40
2023-09-26T06:24:59.855Z,3.92
2023-09-26T06:27:27.338Z,3.67
2023-09-26T06:29:54.174Z,3.90
2023-09-26T06:32:20.817Z,3.75
2023-09-26T06:34:50.490Z,4.00
2023-09-26T06:37:18.809Z,4.20
2023-09-26T06:39:45.536Z,3.60
2023-09-26T06:42:12.167Z,3.97
2023-09-26T06:44:38.935Z,3.72
2023-09-26T06:47:05.652Z,3.63
2023-09-26T06:49:34.392Z,3.85
2023-09-26T06:52:01.345Z,3.92
2023-09-26T06:54:27.986Z,3.53
2023-09-26T06:56:54.544Z,4.00
2023-09-26T06:59:21.885Z,4.13
2023-09-26T07:01:48.507Z,4.00
2023-09-26T07:04:15.897Z,4.25
2023-09-26T07:06:42.984Z,3.85
2023-09-26T07:09:09.729Z,4.00
2023-09-26T07:11:36.317Z,4.22
2023-09-26T07:14:03.590Z,4.20
2023-09-26T07:16:34.635Z,4.10
2023-09-26T07:19:02.256Z,3.70
2023-09-26T07:21:28.945Z,4.00
2023-09-26T07:23:55.892Z,4.70
2023-09-26T07:26:23.408Z,4.13
2023-09-26T07:28:51.435Z,3.90
2023-09-26T07:31:19.758Z,4.20
2023-09-26T07:33:46.847Z,4.13
2023-09-26T07:36:13.923Z,4.15
2023-09-26T07:38:40.733Z,4.53
2023-09-26T07:41:07.662Z,5.05
2023-09-26T07:43:34.876Z,4.57
2023-09-26T07:46:08.537Z,4.70
2023-09-26T07:48:35.955Z,5.03
2023-09-26T07:51:03.466Z,5.57
2023-09-26T07:53:30.120Z,5.47
2023-09-26T07:55:59.536Z,5.25
2023-09-26T07:58:29.502Z,5.47
2023-09-26T08:01:02.310Z,5.93
2023-09-26T08:03:29.198Z,6.53
2023-09-26T08:06:03.506Z,6.30
2023-09-26T08:08:30.740Z,6.07
2023-09-26T08:11:00.446Z,6.40
2023-09-26T08:13:27.183Z,6.65
2023-09-26T08:15:54.259Z,6.70
2023-09-26T08:18:21.788Z,6.00
2023-09-26T08:20:48.635Z,7.70
2023-09-26T08:23:15.400Z,7.20
2023-09-26T08:25:42.021Z,7.38
2023-09-26T08:28:08.685Z,7.22
2023-09-26T08:30:35.434Z,7.15
2023-09-26T08:33:02.349Z,6.80
2023-09-26T08:35:29.104Z,6.38
2023-09-26T08:37:56.458Z,6.20
2023-09-26T08:40:28.303Z,6.38
2023-09-26T08:42:59.219Z,6.90
2023-09-26T08:45:27.075Z,7.03
2023-09-26T08:47:56.000Z,6.50
2023-09-26T08:50:23.737Z,6.68
2023-09-26T08:52:53.569Z,6.65
2023-09-26T08:55:22.035Z,6.07
2023-09-26T08:57:50.286Z,6.63
2023-09-26T09:00:18.758Z,6.40
2023-09-26T09:02:45.397Z,6.80
2023-09-26T09:05:12.066Z,6.63
2023-09-26T09:07:41.032Z,6.45
2023-09-26T09:10:08.840Z,6.80
2023-09-26T09:12:38.912Z,6.38
2023-09-26T09:15:18.886Z,6.43
2023-09-26T09:17:53.550Z,5.53
2023-09-26T09:20:34.625Z,6.57
2023-09-26T09:23:01.639Z,7.45
2023-09-26T09:25:36.538Z,6.53
2023-09-26T09:28:05.635Z,7.65
2023-09-26T09:30:43.664Z,6.90
2023-09-26T09:33:13.191Z,7.30
2023-09-26T09:35:40.021Z,6.68
2023-09-26T09:38:14.383Z,7.22
2023-09-26T09:40:41.477Z,7.18
2023-09-26T09:43:08.368Z,7.43
2023-09-26T09:45:38.095Z,6.70
2023-09-26T09:48:09.266Z,7.03
2023-09-26T09:50:39.917Z,7.22
2023-09-26T09:53:07.824Z,7.85
2023-09-26T09:55:39.696Z,7.75
2023-09-26T09:58:13.747Z,6.70
2023-09-26T10:00:41.891Z,6.47
2023-09-26T10:03:09.379Z,7.68
2023-09-26T10:05:36.342Z,7.72
2023-09-26T10:08:05.305Z,7.25
2023-09-26T10:10:33.300Z,7.35
2023-09-26T10:15:34.741Z,7.43
2023-09-26T10:18:03.410Z,7.22
2023-09-26T10:20:49.568Z,7.22
2023-09-26T10:23:16.837Z,7.25
2023-09-26T10:25:43.502Z,7.07
2023-09-26T10:28:10.164Z,7.40
2023-09-26T10:30:46.426Z,7.35
2023-09-26T10:33:27.948Z,7.15
2023-09-26T10:36:05.683Z,8.05
2023-09-26T10:38:32.740Z,6.22
2023-09-26T10:40:59.829Z,6.88
2023-09-26T10:46:15.908Z,7.20
2023-09-26T10:48:42.711Z,6.30
2023-09-26T10:51:09.355Z,5.95
2023-09-26T10:53:36.346Z,6.50
2023-09-26T10:56:04.371Z,6.40
2023-09-26T10:58:34.826Z,6.78
2023-09-26T11:01:01.897Z,6.55
2023-09-26T11:03:31.560Z,6.57
2023-09-26T11:08:45.909Z,7.25
2023-09-26T11:11:13.469Z,7.10
2023-09-26T11:13:40.885Z,6.07
2023-09-26T11:16:07.873Z,6.28
2023-09-26T11:18:34.760Z,6.10
2023-09-26T11:21:09.633Z,5.50
2023-09-26T11:23:44.268Z,6.57
2023-09-26T11:26:10.915Z,6.10
2023-09-26T11:28:37.908Z,6.15
2023-09-26T11:31:05.130Z,5.57
2023-09-26T11:33:33.166Z,5.25
2023-09-26T11:36:00.081Z,7.88
2023-09-26T11:38:26.820Z,5.97
2023-09-26T11:40:55.161Z,5.50
2023-09-26T11:43:21.990Z,6.43
2023-09-26T11:45:48.974Z,6.00
2023-09-26T11:48:15.641Z,5.13
2023-09-26T11:50:42.321Z,5.53
2023-09-26T11:53:10.322Z,5.82
2023-09-26T11:55:37.143Z,5.13
2023-09-26T11:58:04.275Z,4.97
2023-09-26T12:00:31.366Z,5.85
2023-09-26T12:02:58.586Z,5.10
2023-09-26T12:05:25.600Z,5.07
2023-09-26T12:07:53.127Z,5.20
2023-09-26T12:10:21.224Z,5.25
2023-09-26T12:12:48.119Z,5.35
2023-09-26T12:15:22.137Z,5.35
2023-09-26T12:17:50.554Z,4.95
2023-09-26T12:20:26.791Z,6.15
2023-09-26T12:22:55.090Z,5.55
2023-09-26T12:25:24.257Z,5.55
2023-09-26T12:27:54.823Z,5.75
2023-09-26T12:30:21.947Z,5.63
2023-09-26T12:32:50.929Z,5.32
2023-09-26T12:35:18.590Z,5.20
2023-09-26T12:37:47.230Z,5.15
2023-09-26T12:40:14.510Z,4.90
2023-09-26T12:42:42.447Z,5.30
2023-09-26T12:45:10.349Z,5.32
2023-09-26T12:47:37.611Z,5.22
2023-09-26T12:50:10.700Z,5.63
2023-09-26T12:52:39.698Z,5.25
2023-09-26T12:55:09.611Z,5.28
2023-09-26T12:57:37.049Z,5.35
2023-09-26T13:00:13.400Z,5.10
2023-09-26T13:02:41.424Z,5.10
2023-09-26T13:05:08.859Z,4.40
2023-09-26T13:07:35.591Z,5.13
2023-09-26T13:10:02.599Z,5.35
2023-09-26T13:12:29.457Z,5.68
2023-09-26T13:14:57.312Z,4.63
2023-09-26T13:17:24.189Z,4.70
2023-09-26T13:19:50.944Z,4.10
2023-09-26T13:22:17.594Z,4.03
2023-09-26T13:24:44.280Z,4.20
2023-09-26T13:27:11.067Z,4.95
2023-09-26T13:32:04.949Z,4.35
2023-09-26T13:34:32.076Z,4.20
2023-09-26T13:36:58.929Z,5.03
2023-09-26T13:39:26.296Z,5.05
2023-09-26T13:41:54.262Z,5.22
2023-09-26T13:44:20.966Z,5.75
2023-09-26T13:46:50.795Z,4.30
2023-09-26T13:49:17.632Z,4.93
2023-09-26T13:51:44.346Z,4.18
2023-09-26T13:54:13.686Z,4.65
2023-09-26T13:56:40.453Z,4.88
2023-09-26T13:59:07.293Z,5.40
2023-09-26T14:01:35.729Z,4.78
2023-09-26T14:04:02.595Z,4.32
2023-09-26T14:06:29.454Z,4.40
2023-09-26T14:08:56.262Z,4.22
2023-09-26T14:11:24.092Z,4.70
2023-09-26T14:13:50.736Z,4.22
2023-09-26T14:16:17.476Z,4.30
2023-09-26T14:18:44.213Z,5.30
2023-09-26T14:21:15.437Z,4.55
2023-09-26T14:23:43.355Z,4.45
2023-09-26T14:26:11.458Z,4.20
2023-09-26T14:28:45.150Z,4.57
2023-09-26T14:31:12.535Z,4.95
2023-09-26T14:33:41.490Z,4.18
2023-09-26T14:36:08.383Z,4.40
2023-09-26T14:38:35.159Z,4.95
2023-09-26T14:41:01.782Z,5.05
2023-09-26T14:43:28.513Z,4.60
2023-09-26T14:45:55.357Z,3.90
2023-09-26T14:48:22.298Z,3.65
2023-09-26T14:50:50.372Z,3.50
2023-09-26T14:53:17.406Z,3.38
2023-09-26T14:55:44.078Z,4.50
2023-09-26T14:58:10.741Z,4.28
2023-09-26T15:00:43.063Z,4.13
2023-09-26T15:03:10.647Z,3.47
2023-09-26T15:05:38.490Z,4.22
2023-09-26T15:08:06.006Z,3.85
2023-09-26T15:10:32.903Z,3.80
2023-09-26T15:12:59.601Z,3.65
2023-09-26T15:15:30.777Z,3.80
2023-09-26T15:17:57.756Z,3.95
2023-09-26T15:20:24.546Z,3.70
2023-09-26T15:22:51.501Z,3.10
2023-09-26T15:25:18.309Z,2.75
2023-09-26T15:27:45.165Z,3.75
2023-09-26T15:30:12.590Z,3.28
2023-09-26T15:32:39.433Z,3.55
2023-09-26T15:35:06.968Z,3.15
2023-09-26T15:37:33.771Z,3.30
2023-09-26T15:40:01.627Z,3.20
2023-09-26T15:42:28.705Z,3.28
2023-09-26T15:44:56.531Z,3.28
2023-09-26T15:47:24.753Z,2.92
2023-09-26T15:49:51.689Z,3.00
2023-09-26T15:52:19.060Z,3.00
2023-09-26T15:54:46.087Z,3.00
2023-09-26T15:57:12.707Z,2.70
2023-09-26T15:59:39.995Z,2.72
2023-09-26T16:02:09.466Z,3.30
2023-09-26T16:04:36.936Z,3.05
2023-09-26T16:07:04.414Z,3.83
2023-09-26T16:09:31.542Z,2.72
2023-09-26T16:11:58.200Z,2.90
2023-09-26T16:14:24.854Z,3.63
2023-09-26T16:16:51.791Z,4.20
2023-09-26T16:19:19.015Z,4.30
2023-09-26T16:21:45.993Z,4.15
2023-09-26T16:24:13.029Z,4.18
2023-09-26T16:26:39.916Z,3.38
2023-09-26T16:29:07.221Z,3.03
2023-09-26T16:31:34.610Z,2.78
2023-09-26T16:34:01.423Z,2.88
2023-09-26T16:36:28.113Z,3.00
2023-09-26T16:38:54.846Z,2.90
2023-09-26T16:41:21.929Z,3.65
2023-09-26T16:43:48.785Z,3.95
2023-09-26T16:46:15.580Z,3.25
2023-09-26T16:48:42.452Z,3.00
2023-09-26T16:51:09.510Z,2.92
2023-09-26T16:53:39.943Z,3.00
2023-09-26T16:56:07.040Z,3.28
2023-09-26T16:58:33.865Z,3.30
2023-09-26T17:01:13.351Z,3.30
2023-09-26T17:03:40.454Z,2.88
2023-09-26T17:06:07.750Z,3.00
2023-09-26T17:08:34.634Z,2.90
2023-09-26T17:11:01.519Z,2.92
2023-09-26T17:13:28.565Z,3.30
2023-09-26T17:15:57.849Z,2.92
2023-09-26T17:18:24.804Z,3.33
2023-09-26T17:20:55.271Z,3.30
2023-09-26T17:23:22.684Z,3.13
2023-09-26T17:25:49.371Z,3.17
2023-09-26T17:28:16.071Z,1.60
2023-09-26T17:30:42.685Z,3.22
2023-09-26T17:33:09.791Z,3.13
2023-09-26T17:35:37.231Z,2.00
2023-09-26T17:38:04.404Z,2.80
2023-09-26T17:40:31.223Z,2.78
2023-09-26T17:42:58.951Z,3.20
2023-09-26T17:45:25.653Z,3.08
2023-09-26T17:47:52.612Z,3.25
2023-09-26T17:50:19.336Z,3.67
2023-09-26T17:52:49.226Z,4.13
2023-09-26T17:55:15.883Z,3.20
2023-09-26T17:57:42.497Z,3.08
2023-09-26T18:00:09.751Z,3.28
2023-09-26T18:02:37.359Z,3.00
2023-09-26T18:05:04.326Z,3.20
2023-09-26T18:07:30.966Z,3.88
2023-09-26T18:10:00.785Z,3.40
2023-09-26T18:12:27.573Z,3.58
2023-09-26T18:14:54.422Z,3.47
2023-09-26T18:17:21.246Z,3.55
2023-09-26T18:19:48.055Z,3.60
2023-09-26T18:22:14.841Z,3.42
2023-09-26T18:24:42.154Z,3.78
2023-09-26T18:27:11.796Z,3.95
2023-09-26T18:29:38.457Z,3.85
2023-09-26T18:32:05.386Z,3.90
2023-09-26T18:34:32.156Z,3.55
2023-09-26T18:36:58.823Z,4.00
2023-09-26T18:39:25.531Z,3.65
2023-09-26T18:41:52.135Z,4.40
2023-09-26T18:44:18.966Z,4.13
2023-09-26T18:46:45.977Z,4.47
2023-09-26T18:49:12.641Z,4.03
2023-09-26T18:51:39.205Z,4.15
2023-09-26T18:54:06.248Z,5.03
2023-09-26T18:56:32.935Z,5.10
2023-09-26T18:58:59.685Z,5.10
2023-09-26T19:01:27.441Z,4.80
2023-09-26T19:03:54.648Z,5.20
2023-09-26T19:06:21.562Z,6.55
2023-09-26T19:08:48.338Z,9.20
2023-09-26T19:11:15.635Z,7.45
2023-09-26T19:13:42.504Z,4.70
2023-09-26T19:16:09.306Z,4.57
2023-09-26T19:18:39.372Z,4.80
2023-09-26T19:21:11.019Z,4.53
2023-09-26T19:23:37.710Z,4.60
2023-09-26T19:26:05.242Z,4.60
2023-09-26T19:28:32.013Z,4.40
2023-09-26T19:30:58.763Z,4.78
2023-09-26T19:33:25.794Z,4.22
2023-09-26T19:35:53.062Z,4.32
2023-09-26T19:38:19.724Z,4.15
2023-09-26T19:40:46.405Z,4.88
2023-09-26T19:43:13.451Z,4.70
2023-09-26T19:45:40.158Z,4.90
2023-09-26T19:48:07.360Z,4.88
2023-09-26T19:50:34.121Z,4.55
2023-09-26T19:53:00.844Z,4.97
2023-09-26T19:55:30.525Z,5.10
2023-09-26T19:57:58.485Z,5.25
2023-09-26T20:00:25.152Z,5.45
2023-09-26T20:02:52.619Z,4.97
2023-09-26T20:05:19.487Z,4.82
2023-09-26T20:07:46.110Z,4.68
2023-09-26T20:10:12.857Z,4.63
2023-09-26T20:12:39.784Z,4.80
2023-09-26T20:15:18.580Z,4.88
2023-09-26T20:17:50.100Z,5.03
2023-09-26T20:20:16.807Z,5.00
2023-09-26T20:22:43.578Z,5.25
2023-09-26T20:25:11.753Z,4.90
2023-09-26T20:27:38.759Z,5.25
2023-09-26T20:30:06.104Z,5.78
2023-09-26T20:32:32.772Z,5.50
2023-09-26T20:34:59.453Z,5.32
2023-09-26T20:37:27.076Z,5.18
2023-09-26T20:39:55.292Z,5.30
2023-09-26T20:42:22.345Z,5.35
2023-09-26T20:44:49.556Z,5.25
2023-09-26T20:47:16.451Z,5.82
2023-09-26T20:49:43.301Z,5.57
2023-09-26T20:52:09.960Z,5.53
2023-09-26T20:54:36.618Z,5.53
2023-09-26T20:57:03.243Z,5.18
2023-09-26T20:59:29.885Z,5.38
2023-09-26T21:01:56.547Z,5.82
2023-09-26T21:04:23.209Z,5.63
2023-09-26T21:06:53.128Z,4.90
2023-09-26T21:09:20.985Z,4.82
2023-09-26T21:11:47.607Z,4.90
2023-09-26T21:14:14.260Z,4.85
2023-09-26T21:16:40.887Z,5.07
2023-09-26T21:19:07.581Z,5.28
2023-09-26T21:21:34.488Z,5.50
2023-09-26T21:24:01.601Z,5.28
2023-09-26T21:26:28.361Z,4.93
2023-09-26T21:28:55.391Z,5.30
2023-09-26T21:31:22.380Z,5.50
2023-09-26T21:33:49.880Z,5.35
2023-09-26T21:36:16.740Z,4.95
2023-09-26T21:38:43.471Z,5.13
2023-09-26T21:41:10.236Z,4.90
2023-09-26T21:43:37.697Z,4.90
2023-09-26T21:46:04.816Z,5.15
2023-09-26T21:48:31.664Z,4.85
2023-09-26T21:50:58.511Z,4.55
2023-09-26T21:53:28.244Z,5.20
2023-09-26T21:55:54.942Z,4.82
2023-09-26T21:58:21.696Z,4.95
2023-09-26T22:00:49.074Z,4.68
2023-09-26T22:03:16.031Z,5.05
2023-09-26T22:05:42.747Z,5.05
2023-09-26T22:08:09.847Z,4.72
2023-09-26T22:10:36.616Z,4.50
2023-09-26T22:13:03.322Z,4.97
2023-09-26T22:15:30.024Z,4.78
2023-09-26T22:17:58.500Z,5.00
2023-09-26T22:20:25.482Z,4.90
2023-09-26T22:22:52.306Z,5.25
2023-09-26T22:25:19.021Z,5.32
2023-09-26T22:27:45.724Z,4.80
2023-09-26T22:30:12.784Z,5.43
2023-09-26T22:32:42.538Z,5.18
2023-09-26T22:35:09.822Z,4.90
2023-09-26T22:37:36.877Z,5.00
2023-09-26T22:40:04.476Z,5.03
2023-09-26T22:42:31.155Z,4.70
2023-09-26T22:44:57.922Z,4.95
2023-09-26T22:47:25.317Z,4.90
2023-09-26T22:49:52.390Z,5.15
2023-09-26T22:52:19.834Z,5.03
2023-09-26T22:54:47.545Z,5.10
2023-09-26T22:57:14.300Z,5.25
2023-09-26T22:59:41.018Z,5.40
2023-09-26T23:02:08.049Z,4.90
2023-09-26T23:04:35.484Z,5.28
2023-09-26T23:10:42.839Z,5.20
2023-09-26T23:13:09.810Z,4.93
2023-09-26T23:15:36.593Z,5.30
2023-09-26T23:18:03.451Z,4.93
2023-09-26T23:20:30.167Z,5.75
2023-09-26T23:22:57.006Z,5.30
2023-09-26T23:25:23.816Z,4.97
2023-09-26T23:27:50.792Z,5.18
2023-09-26T23:30:17.472Z,5.35
2023-09-26T23:32:44.381Z,4.97
2023-09-26T23:35:15.674Z,6.15
2023-09-26T23:37:42.404Z,5.32
2023-09-26T23:40:11.199Z,5.28
2023-09-26T23:42:38.243Z,5.20
2023-09-26T23:45:05.839Z,4.85
2023-09-26T23:47:33.180Z,5.25
2023-09-26T23:50:00.577Z,5.60
2023-09-26T23:52:27.286Z,5.30
2023-09-26T23:54:53.906Z,5.45
2023-09-26T23:57:20.564Z,5.43
2023-09-26T23:59:47.253Z,5.20
